createdAt,value
2022-12-10T00:01:50.548Z,1.62
2022-12-10T00:04:19.528Z,1.63
2022-12-10T00:06:49.285Z,1.65
2022-12-10T00:09:19.178Z,1.68
2022-12-10T00:11:47.827Z,1.80
2022-12-10T00:14:16.999Z,1.72
2022-12-10T00:16:47.021Z,1.62
2022-12-10T00:19:15.729Z,1.54
2022-12-10T00:21:45.292Z,1.57
2022-12-10T00:24:13.898Z,1.52
2022-12-10T00:26:42.901Z,1.61
2022-12-10T00:29:12.988Z,1.52
2022-12-10T00:31:41.922Z,1.55
2022-12-10T00:34:12.837Z,1.53
2022-12-10T00:36:43.692Z,1.55
2022-12-10T00:39:13.415Z,1.58
2022-12-10T00:41:42.105Z,1.55
2022-12-10T00:44:10.756Z,1.59
2022-12-10T00:46:39.525Z,1.63
2022-12-10T00:49:08.307Z,1.62
2022-12-10T00:51:38.480Z,1.62
2022-12-10T00:54:07.577Z,1.58
2022-12-10T00:56:36.522Z,1.61
2022-12-10T00:59:05.759Z,1.59
2022-12-10T01:01:36.505Z,1.59
2022-12-10T01:04:06.852Z,1.53
2022-12-10T01:06:38.657Z,1.54
2022-12-10T01:09:08.995Z,1.58
2022-12-10T01:11:39.398Z,1.57
2022-12-10T01:14:09.175Z,1.58
2022-12-10T01:16:38.466Z,1.59
2022-12-10T01:19:07.447Z,1.53
2022-12-10T01:21:36.209Z,1.53
2022-12-10T01:24:06.916Z,1.51
2022-12-10T01:26:36.571Z,1.54
2022-12-10T01:29:06.004Z,1.58
2022-12-10T01:31:36.563Z,1.60
2022-12-10T01:34:06.467Z,1.58
2022-12-10T01:36:36.852Z,1.65
2022-12-10T01:39:09.014Z,1.64
2022-12-10T01:41:39.660Z,1.64
2022-12-10T01:44:41.695Z,1.62
2022-12-10T01:47:11.145Z,1.55
2022-12-10T01:49:41.593Z,1.56
2022-12-10T01:52:12.436Z,1.57
2022-12-10T01:54:44.707Z,1.63
2022-12-10T01:57:15.528Z,1.66
2022-12-10T01:59:47.718Z,1.67
2022-12-10T02:02:22.399Z,1.66
2022-12-10T02:05:00.361Z,1.65
2022-12-10T02:07:35.057Z,1.59
2022-12-10T02:10:11.353Z,1.58
2022-12-10T02:12:46.409Z,1.62
2022-12-10T02:15:17.743Z,1.64
2022-12-10T02:17:49.984Z,1.61
2022-12-10T02:20:21.675Z,1.59
2022-12-10T02:22:52.923Z,1.49
2022-12-10T02:25:28.774Z,1.53
2022-12-10T02:28:03.527Z,1.53
2022-12-10T02:30:34.875Z,1.53
2022-12-10T02:33:05.494Z,1.57
2022-12-10T02:35:35.547Z,1.57
2022-12-10T02:38:09.940Z,1.59
2022-12-10T02:40:40.851Z,1.57
2022-12-10T02:43:10.258Z,1.55
2022-12-10T02:45:40.955Z,1.51
2022-12-10T02:48:09.833Z,1.52
2022-12-10T02:50:38.478Z,1.53
2022-12-10T02:53:07.093Z,1.50
2022-12-10T02:55:47.361Z,1.52
2022-12-10T02:58:21.337Z,1.51
2022-12-10T03:00:57.640Z,1.52
2022-12-10T03:03:35.581Z,1.54
2022-12-10T03:06:11.037Z,1.50
2022-12-10T03:08:42.769Z,1.51
2022-12-10T03:11:13.929Z,1.54
2022-12-10T03:13:47.503Z,1.54
2022-12-10T03:16:18.784Z,1.49
2022-12-10T03:18:51.382Z,1.50
2022-12-10T03:21:20.677Z,1.47
2022-12-10T03:23:49.880Z,1.42
2022-12-10T03:26:18.737Z,1.35
2022-12-10T03:28:49.174Z,1.42
2022-12-10T03:31:20.523Z,1.44
2022-12-10T03:33:49.800Z,1.40
2022-12-10T03:36:19.503Z,1.45
2022-12-10T03:38:48.083Z,1.45
2022-12-10T03:41:16.712Z,1.48
2022-12-10T03:43:55.735Z,1.46
2022-12-10T03:46:27.373Z,1.45
2022-12-10T03:49:00.809Z,1.41
2022-12-10T03:51:29.514Z,1.40
2022-12-10T03:53:58.154Z,1.35
2022-12-10T03:56:26.747Z,1.36
2022-12-10T03:58:55.400Z,1.36
2022-12-10T04:01:24.022Z,1.42
2022-12-10T04:03:54.003Z,1.43
2022-12-10T04:06:22.660Z,1.37
2022-12-10T04:08:58.290Z,1.29
2022-12-10T04:11:27.699Z,1.31
2022-12-10T04:14:13.663Z,1.28
2022-12-10T04:16:42.376Z,1.27
2022-12-10T04:19:13.879Z,1.28
2022-12-10T04:22:01.427Z,1.30
2022-12-10T04:24:48.914Z,1.35
2022-12-10T04:27:19.965Z,1.33
2022-12-10T04:29:48.911Z,1.30
2022-12-10T04:32:17.787Z,1.30
2022-12-10T04:34:47.836Z,1.32
2022-12-10T04:37:17.280Z,1.32
2022-12-10T04:39:46.219Z,1.32
2022-12-10T04:42:15.123Z,1.30
2022-12-10T04:44:43.692Z,1.36
2022-12-10T04:47:13.054Z,1.37
2022-12-10T04:49:42.039Z,1.38
2022-12-10T04:52:14.092Z,1.38
2022-12-10T04:54:43.151Z,1.39
2022-12-10T04:57:12.958Z,1.38
2022-12-10T04:59:41.617Z,1.40
2022-12-10T05:02:10.312Z,1.41
2022-12-10T05:04:39.004Z,1.40
2022-12-10T05:07:07.639Z,1.39
2022-12-10T05:09:37.552Z,1.44
2022-12-10T05:12:06.429Z,1.41
2022-12-10T05:14:35.027Z,1.34
2022-12-10T05:17:03.669Z,1.40
2022-12-10T05:19:32.331Z,1.41
2022-12-10T05:22:18.430Z,1.35
2022-12-10T05:24:48.364Z,1.34
2022-12-10T05:27:16.981Z,1.33
2022-12-10T05:29:45.609Z,1.34
2022-12-10T05:32:14.183Z,1.31
2022-12-10T05:34:42.761Z,1.31
2022-12-10T05:37:11.360Z,1.32
2022-12-10T05:39:40.005Z,1.32
2022-12-10T05:42:10.009Z,1.33
2022-12-10T05:44:38.737Z,1.28
2022-12-10T05:47:07.323Z,1.34
2022-12-10T05:49:35.925Z,1.36
2022-12-10T05:52:04.755Z,1.36
2022-12-10T05:54:33.379Z,1.38
2022-12-10T05:57:02.000Z,1.39
2022-12-10T05:59:32.510Z,1.41
2022-12-10T06:02:01.103Z,1.43
2022-12-10T06:04:29.750Z,1.40
2022-12-10T06:06:58.367Z,1.38
2022-12-10T06:09:26.942Z,1.32
2022-12-10T06:11:55.538Z,1.32
2022-12-10T06:14:24.162Z,1.29
2022-12-10T06:16:54.117Z,1.30
2022-12-10T06:19:22.731Z,1.40
2022-12-10T06:21:51.393Z,1.37
2022-12-10T06:24:20.001Z,1.34
2022-12-10T06:26:50.561Z,1.27
2022-12-10T06:29:22.589Z,1.23
2022-12-10T06:31:51.169Z,1.23
2022-12-10T06:34:21.143Z,1.24
2022-12-10T06:36:49.753Z,1.20
2022-12-10T06:39:18.393Z,1.20
2022-12-10T06:41:47.041Z,1.23
2022-12-10T06:44:15.701Z,1.23
2022-12-10T06:46:44.645Z,1.20
2022-12-10T06:49:13.290Z,1.21
2022-12-10T06:51:43.317Z,1.17
2022-12-10T06:54:11.954Z,1.16
2022-12-10T06:56:40.581Z,1.17
2022-12-10T06:59:09.164Z,1.22
2022-12-10T07:01:40.070Z,1.12
2022-12-10T07:04:09.659Z,1.19
2022-12-10T07:06:38.264Z,1.16
2022-12-10T07:09:08.249Z,1.23
2022-12-10T07:11:37.184Z,1.26
2022-12-10T07:14:05.927Z,1.25
2022-12-10T07:16:35.035Z,1.23
2022-12-10T07:19:04.442Z,1.27
2022-12-10T07:21:34.331Z,1.25
2022-12-10T07:24:04.762Z,1.18
2022-12-10T07:26:36.695Z,1.16
2022-12-10T07:29:06.575Z,1.12
2022-12-10T07:31:35.597Z,1.08
2022-12-10T07:34:04.475Z,1.09
2022-12-10T07:36:33.097Z,1.11
2022-12-10T07:39:01.722Z,1.13
2022-12-10T07:41:31.115Z,1.16
2022-12-10T07:44:01.159Z,1.16
2022-12-10T07:46:32.414Z,1.14
2022-12-10T07:49:02.544Z,1.15
2022-12-10T07:51:31.771Z,1.10
2022-12-10T07:54:00.348Z,1.14
2022-12-10T07:56:29.034Z,1.16
2022-12-10T07:58:57.658Z,1.17
2022-12-10T08:01:28.215Z,1.23
2022-12-10T08:03:58.464Z,1.20
2022-12-10T08:06:28.540Z,1.19
2022-12-10T08:08:57.937Z,1.23
2022-12-10T08:11:27.660Z,1.26
2022-12-10T08:13:57.811Z,1.25
2022-12-10T08:16:29.757Z,1.22
2022-12-10T08:18:59.644Z,1.25
2022-12-10T08:21:29.962Z,1.24
2022-12-10T08:23:58.641Z,1.28
2022-12-10T08:26:29.033Z,1.26
2022-12-10T08:28:58.679Z,1.21
2022-12-10T08:31:33.016Z,1.21
2022-12-10T08:34:05.662Z,1.23
2022-12-10T08:36:34.290Z,1.25
2022-12-10T08:39:02.927Z,1.26
2022-12-10T08:41:31.657Z,1.30
2022-12-10T08:44:00.339Z,1.30
2022-12-10T08:46:30.518Z,1.35
2022-12-10T08:48:59.300Z,1.42
2022-12-10T08:51:28.784Z,1.38
2022-12-10T08:53:57.684Z,1.47
2022-12-10T08:56:26.381Z,1.44
2022-12-10T08:58:55.027Z,1.44
2022-12-10T09:01:23.827Z,1.48
2022-12-10T09:03:54.936Z,1.51
2022-12-10T09:06:25.973Z,1.54
2022-12-10T09:08:55.119Z,1.55
2022-12-10T09:11:25.934Z,1.55
2022-12-10T09:13:55.167Z,1.54
2022-12-10T09:16:26.284Z,1.55
2022-12-10T09:18:56.282Z,1.54
2022-12-10T09:21:24.876Z,1.58
2022-12-10T09:23:53.832Z,1.58
2022-12-10T09:26:22.912Z,1.52
2022-12-10T09:28:52.159Z,1.54
2022-12-10T09:31:21.961Z,1.50
2022-12-10T09:33:51.907Z,1.57
2022-12-10T09:36:23.109Z,1.59
2022-12-10T09:38:53.079Z,1.55
2022-12-10T09:41:43.323Z,1.54
2022-12-10T09:44:15.219Z,1.60
2022-12-10T09:46:50.693Z,1.67
2022-12-10T09:49:27.099Z,1.67
2022-12-10T09:51:58.704Z,1.66
2022-12-10T09:54:28.920Z,1.64
2022-12-10T09:56:59.243Z,1.62
2022-12-10T09:59:34.836Z,1.67
2022-12-10T10:02:06.006Z,1.72
2022-12-10T10:04:34.673Z,1.75
2022-12-10T10:07:06.694Z,1.81
2022-12-10T10:09:40.791Z,1.81
2022-12-10T10:12:13.124Z,1.85
2022-12-10T10:14:41.964Z,1.87
2022-12-10T10:17:13.145Z,1.85
2022-12-10T10:19:42.301Z,1.83
2022-12-10T10:22:12.788Z,1.79
2022-12-10T10:24:43.622Z,1.78
2022-12-10T10:27:16.230Z,1.76
2022-12-10T10:29:46.062Z,1.62
2022-12-10T10:32:19.954Z,1.63
2022-12-10T10:34:54.291Z,1.64
2022-12-10T10:37:28.056Z,1.62
2022-12-10T10:39:57.014Z,1.52
2022-12-10T10:42:30.635Z,1.57
2022-12-10T10:44:59.268Z,1.58
2022-12-10T10:47:34.496Z,1.58
2022-12-10T10:50:04.879Z,1.64
2022-12-10T10:52:39.078Z,1.73
2022-12-10T10:55:10.900Z,1.79
2022-12-10T10:57:39.600Z,1.80
2022-12-10T11:00:19.667Z,1.83
2022-12-10T11:02:48.512Z,1.80
2022-12-10T11:05:19.406Z,1.89
2022-12-10T11:07:49.359Z,1.92
2022-12-10T11:10:20.875Z,2.01
2022-12-10T11:12:56.519Z,2.05
2022-12-10T11:15:34.835Z,1.99
2022-12-10T11:18:04.652Z,2.02
2022-12-10T11:20:41.973Z,2.09
2022-12-10T11:23:16.278Z,2.04
2022-12-10T11:25:49.622Z,2.03
2022-12-10T11:28:30.184Z,2.02
2022-12-10T11:31:07.649Z,2.03
2022-12-10T11:33:42.345Z,2.02
2022-12-10T11:36:23.693Z,2.03
2022-12-10T11:38:58.798Z,2.06
2022-12-10T11:41:31.754Z,2.10
2022-12-10T11:44:14.494Z,2.09
2022-12-10T11:47:01.146Z,2.02
2022-12-10T11:49:38.074Z,1.93
2022-12-10T11:52:15.304Z,2.00
2022-12-10T11:55:04.055Z,2.06
2022-12-10T11:57:42.258Z,2.09
2022-12-10T12:00:20.966Z,2.09
2022-12-10T12:03:17.265Z,2.03
2022-12-10T12:06:00.826Z,2.06
2022-12-10T12:08:44.522Z,2.12
2022-12-10T12:11:24.584Z,2.16
2022-12-10T12:13:56.986Z,2.14
2022-12-10T12:16:29.838Z,2.17
2022-12-10T12:19:01.591Z,2.19
2022-12-10T12:21:30.337Z,2.20
2022-12-10T12:24:04.531Z,2.14
2022-12-10T12:26:39.184Z,2.11
2022-12-10T12:29:15.677Z,2.18
2022-12-10T12:31:48.733Z,2.24
2022-12-10T12:34:21.119Z,2.23
2022-12-10T12:36:50.380Z,2.15
2022-12-10T12:39:26.103Z,2.17
2022-12-10T12:42:03.618Z,2.17
2022-12-10T12:44:38.516Z,2.02
2022-12-10T12:47:21.010Z,2.18
2022-12-10T12:49:50.516Z,2.21
2022-12-10T12:52:30.384Z,2.32
2022-12-10T12:55:01.903Z,2.21
2022-12-10T12:57:36.495Z,2.12
2022-12-10T13:00:07.785Z,2.17
2022-12-10T13:02:48.770Z,2.16
2022-12-10T13:05:23.263Z,2.13
2022-12-10T13:08:39.995Z,2.07
2022-12-10T13:11:33.493Z,2.05
2022-12-10T13:14:32.543Z,2.20
2022-12-10T13:17:13.871Z,2.14
2022-12-10T13:19:43.203Z,2.06
2022-12-10T13:22:13.167Z,2.11
2022-12-10T13:25:05.398Z,2.13
2022-12-10T13:27:35.940Z,2.17
2022-12-10T13:30:28.353Z,2.19
2022-12-10T13:33:07.425Z,2.22
2022-12-10T13:35:45.290Z,2.24
2022-12-10T13:38:22.266Z,2.27
2022-12-10T13:41:34.082Z,2.19
2022-12-10T13:44:20.480Z,2.25
2022-12-10T13:46:56.272Z,2.14
2022-12-10T13:49:26.792Z,2.09
2022-12-10T13:51:59.370Z,2.01
2022-12-10T13:55:18.196Z,2.02
2022-12-10T13:58:34.909Z,2.07
2022-12-10T14:01:14.077Z,2.07
2022-12-10T14:03:53.701Z,2.04
2022-12-10T14:06:23.026Z,2.02
2022-12-10T14:09:01.435Z,2.01
2022-12-10T14:11:37.386Z,2.02
2022-12-10T14:14:07.651Z,2.04
2022-12-10T14:16:37.796Z,2.06
2022-12-10T14:19:08.936Z,2.05
2022-12-10T14:21:39.860Z,2.03
2022-12-10T14:24:27.569Z,2.00
2022-12-10T14:27:00.041Z,1.97
2022-12-10T14:29:29.606Z,2.00
2022-12-10T14:31:58.949Z,1.99
2022-12-10T14:34:30.396Z,1.98
2022-12-10T14:37:00.034Z,1.91
2022-12-10T14:39:30.043Z,1.86
2022-12-10T14:42:00.358Z,1.83
2022-12-10T14:44:29.676Z,1.83
2022-12-10T14:47:06.580Z,1.84
2022-12-10T14:49:43.475Z,1.80
2022-12-10T14:52:14.344Z,1.75
2022-12-10T14:54:43.625Z,1.73
2022-12-10T14:57:18.841Z,1.68
2022-12-10T14:59:50.552Z,1.65
2022-12-10T15:02:23.593Z,1.58
2022-12-10T15:04:54.105Z,1.54
2022-12-10T15:07:25.021Z,1.49
2022-12-10T15:09:55.037Z,1.41
2022-12-10T15:12:30.736Z,1.44
2022-12-10T15:15:04.482Z,1.36
2022-12-10T15:17:39.165Z,1.30
2022-12-10T15:20:24.074Z,1.27
2022-12-10T15:22:53.071Z,1.17
2022-12-10T15:25:24.919Z,1.12
2022-12-10T15:27:58.688Z,1.12
2022-12-10T15:30:37.442Z,1.08
2022-12-10T15:33:18.406Z,1.07
2022-12-10T15:35:48.439Z,1.08
2022-12-10T15:38:17.647Z,1.00
2022-12-10T15:40:46.282Z,0.95
2022-12-10T15:43:25.769Z,0.94
2022-12-10T15:45:54.420Z,0.87
2022-12-10T15:48:24.828Z,0.91
2022-12-10T15:50:54.898Z,0.94
2022-12-10T15:53:32.256Z,0.90
2022-12-10T15:56:04.575Z,0.92
2022-12-10T15:58:33.182Z,0.90
2022-12-10T16:01:02.275Z,0.88
2022-12-10T16:03:31.246Z,0.90
2022-12-10T16:06:01.253Z,0.93
2022-12-10T16:08:32.834Z,0.96
2022-12-10T16:11:05.279Z,0.96
2022-12-10T16:13:35.404Z,0.97
2022-12-10T16:16:07.866Z,0.96
2022-12-10T16:18:37.577Z,0.92
2022-12-10T16:21:08.805Z,0.90
2022-12-10T16:23:38.105Z,0.90
2022-12-10T16:26:14.726Z,0.97
2022-12-10T16:28:43.838Z,0.95
2022-12-10T16:31:14.317Z,0.93
2022-12-10T16:33:43.019Z,0.93
2022-12-10T16:36:13.453Z,0.93
2022-12-10T16:38:42.517Z,0.93
2022-12-10T16:41:17.253Z,0.89
2022-12-10T16:43:46.000Z,0.89
2022-12-10T16:46:15.098Z,0.90
2022-12-10T16:48:43.794Z,0.94
2022-12-10T16:51:20.772Z,0.94
2022-12-10T16:53:49.424Z,0.94
2022-12-10T16:56:18.571Z,0.93
2022-12-10T16:58:47.484Z,0.91
2022-12-10T17:01:19.746Z,0.95
2022-12-10T17:03:48.617Z,0.91
2022-12-10T17:06:19.885Z,0.85
2022-12-10T17:08:48.951Z,0.82
2022-12-10T17:11:37.850Z,0.80
2022-12-10T17:14:07.893Z,0.79
2022-12-10T17:16:36.628Z,0.80
2022-12-10T17:19:05.289Z,0.78
2022-12-10T17:21:38.607Z,0.75
2022-12-10T17:24:08.277Z,0.73
2022-12-10T17:26:39.368Z,0.73
2022-12-10T17:29:12.909Z,0.71
2022-12-10T17:31:41.638Z,0.65
2022-12-10T17:34:11.336Z,0.69
2022-12-10T17:36:41.864Z,0.71
2022-12-10T17:39:18.678Z,0.72
2022-12-10T17:41:50.927Z,0.72
2022-12-10T17:44:19.856Z,0.70
2022-12-10T17:46:48.468Z,0.73
2022-12-10T17:49:18.430Z,0.73
2022-12-10T17:51:48.631Z,0.74
2022-12-10T17:54:17.289Z,0.73
2022-12-10T17:56:47.052Z,0.63
2022-12-10T17:59:16.247Z,0.63
2022-12-10T18:01:48.402Z,0.65
2022-12-10T18:04:17.891Z,0.65
2022-12-10T18:06:48.253Z,0.62
2022-12-10T18:09:17.230Z,0.54
2022-12-10T18:11:46.265Z,0.56
2022-12-10T18:14:15.224Z,0.50
2022-12-10T18:16:44.565Z,0.52
2022-12-10T18:19:15.198Z,0.43
2022-12-10T18:21:43.996Z,0.42
2022-12-10T18:24:15.563Z,0.36
2022-12-10T18:26:45.027Z,0.32
2022-12-10T18:29:14.941Z,0.33
2022-12-10T18:31:45.010Z,0.25
2022-12-10T18:34:15.892Z,0.31
2022-12-10T18:36:46.921Z,0.33
2022-12-10T18:39:19.611Z,0.21
2022-12-10T18:41:48.710Z,0.28
2022-12-10T18:44:18.338Z,0.31
2022-12-10T18:46:46.971Z,0.34
2022-12-10T18:49:16.697Z,0.38
2022-12-10T18:51:45.609Z,0.37
2022-12-10T18:54:14.224Z,0.35
2022-12-10T18:56:49.954Z,0.36
2022-12-10T18:59:26.571Z,0.33
2022-12-10T19:01:55.322Z,0.36
2022-12-10T19:04:23.947Z,0.30
2022-12-10T19:06:52.545Z,0.28
2022-12-10T19:09:21.249Z,0.29
2022-12-10T19:11:52.093Z,0.24
2022-12-10T19:14:23.428Z,0.27
2022-12-10T19:16:52.129Z,0.26
2022-12-10T19:19:20.838Z,0.30
2022-12-10T19:21:50.017Z,0.36
2022-12-10T19:24:18.678Z,0.34
2022-12-10T19:26:47.489Z,0.36
2022-12-10T19:29:19.053Z,0.37
2022-12-10T19:31:48.175Z,0.38
2022-12-10T19:34:18.370Z,0.37
2022-12-10T19:36:49.268Z,0.38
2022-12-10T19:39:19.011Z,0.35
2022-12-10T19:41:47.832Z,0.31
2022-12-10T19:44:17.854Z,0.30
2022-12-10T19:46:46.636Z,0.32
2022-12-10T19:49:17.107Z,0.36
2022-12-10T19:51:45.988Z,0.32
2022-12-10T19:54:14.814Z,0.38
2022-12-10T19:56:43.648Z,0.36
2022-12-10T19:59:15.568Z,0.36
2022-12-10T20:01:46.197Z,0.38
2022-12-10T20:04:15.863Z,0.28
2022-12-10T20:06:46.022Z,0.33
2022-12-10T20:09:19.131Z,0.27
2022-12-10T20:11:48.331Z,0.30
2022-12-10T20:14:17.547Z,0.30
2022-12-10T20:16:49.534Z,0.10
2022-12-10T20:19:22.811Z,0.18
2022-12-10T20:21:51.860Z,0.25
2022-12-10T20:24:20.761Z,0.21
2022-12-10T20:26:50.577Z,0.28
2022-12-10T20:29:20.865Z,0.25
2022-12-10T20:31:51.950Z,0.21
2022-12-10T20:34:21.399Z,0.22
2022-12-10T20:36:50.485Z,0.26
2022-12-10T20:39:21.684Z,0.23
2022-12-10T20:41:51.288Z,0.29
2022-12-10T20:44:20.518Z,0.29
2022-12-10T20:46:51.453Z,0.30
2022-12-10T20:49:22.642Z,0.25
2022-12-10T20:51:51.727Z,0.27
2022-12-10T20:54:20.477Z,0.30
2022-12-10T20:56:49.160Z,0.22
2022-12-10T20:59:18.200Z,0.14
2022-12-10T21:01:46.994Z,0.25
2022-12-10T21:04:17.227Z,0.27
2022-12-10T21:06:46.157Z,0.25
2022-12-10T21:09:14.858Z,0.18
2022-12-10T21:11:43.528Z,0.16
2022-12-10T21:14:51.506Z,0.13
2022-12-10T21:17:00.856Z,0.12
2022-12-10T21:19:31.156Z,0.04
2022-12-10T21:21:59.882Z,0.03
2022-12-10T21:24:28.542Z,-0.01
2022-12-10T21:26:58.923Z,-0.02
2022-12-10T21:29:27.538Z,-0.07
2022-12-10T21:31:56.176Z,-0.10
2022-12-10T21:34:24.790Z,-0.13
2022-12-10T21:36:54.786Z,-0.11
2022-12-10T21:39:25.500Z,-0.13
2022-12-10T21:42:12.011Z,-0.14
2022-12-10T21:44:40.650Z,-0.07
2022-12-10T21:47:09.280Z,-0.07
2022-12-10T21:49:37.875Z,-0.09
2022-12-10T21:52:07.823Z,-0.10
2022-12-10T21:54:36.473Z,-0.15
2022-12-10T21:57:05.168Z,-0.23
2022-12-10T21:59:33.809Z,-0.14
2022-12-10T22:02:02.530Z,-0.12
2022-12-10T22:04:31.230Z,-0.15
2022-12-10T22:06:59.903Z,-0.15
2022-12-10T22:09:29.999Z,-0.13
2022-12-10T22:11:58.646Z,-0.12
2022-12-10T22:14:27.372Z,-0.13
2022-12-10T22:16:56.045Z,-0.06
2022-12-10T22:19:24.703Z,-0.08
2022-12-10T22:21:53.334Z,-0.07
2022-12-10T22:24:21.992Z,-0.05
2022-12-10T22:26:51.954Z,-0.07
2022-12-10T22:29:20.701Z,-0.05
2022-12-10T22:31:49.351Z,-0.05
2022-12-10T22:34:18.056Z,-0.05
2022-12-10T22:36:46.706Z,-0.05
2022-12-10T22:39:15.804Z,-0.05
2022-12-10T22:41:44.992Z,-0.09
2022-12-10T22:44:15.282Z,-0.07
2022-12-10T22:46:43.952Z,-0.06
2022-12-10T22:49:12.666Z,-0.03
2022-12-10T22:51:41.291Z,-0.03
2022-12-10T22:54:09.924Z,-0.04
2022-12-10T22:56:38.727Z,-0.02
2022-12-10T22:59:07.449Z,0.02
2022-12-10T23:01:37.444Z,0.02
2022-12-10T23:04:06.084Z,0.01
2022-12-10T23:06:34.686Z,-0.02
2022-12-10T23:09:03.318Z,-0.02
2022-12-10T23:11:31.934Z,-0.05
2022-12-10T23:14:00.566Z,-0.12
2022-12-10T23:16:29.242Z,-0.12
2022-12-10T23:18:59.269Z,-0.10
2022-12-10T23:21:28.175Z,-0.12
2022-12-10T23:23:56.823Z,-0.16
2022-12-10T23:26:25.519Z,-0.13
2022-12-10T23:28:54.164Z,-0.14
2022-12-10T23:31:22.868Z,-0.20
2022-12-10T23:33:51.586Z,-0.15
2022-12-10T23:36:21.515Z,-0.21
2022-12-10T23:38:50.188Z,-0.20
2022-12-10T23:41:18.836Z,-0.16
2022-12-10T23:43:47.419Z,-0.26
2022-12-10T23:46:16.156Z,-0.19
2022-12-10T23:48:45.186Z,-0.20
2022-12-10T23:51:13.828Z,-0.18
2022-12-10T23:53:43.848Z,-0.21
2022-12-10T23:56:16.428Z,-0.22
2022-12-10T23:58:45.258Z,-0.29
